Time;durP1;ratioP1;P1;durP2;ratioP2;P2;SDS_P1;SDS_P2;PMS_P1;PMS_P2;Temp;Humidity;BMP_temperature;BMP_pressure;BME280_temperature;BME280_humidity;BME280_pressure;Samples;Min_cycle;Max_cycle;Signal;HPM_P1;HPM_P2
2022/04/09 00:00:33;;;;;;;;;;;6.50;99.90;;;;;;2076939;28;19914;-68
2022/04/09 00:01:34;;;;;;;;;;;6.50;99.90;;;;;;2081327;28;20198;-68
2022/04/09 00:02:34;;;;;;;;;;;6.50;99.90;;;;;;2082788;28;19916;-68
2022/04/09 00:03:35;;;;;;;;;;;6.40;99.90;;;;;;2081043;28;20447;-68
2022/04/09 00:04:35;;;;;;;;;;;6.40;99.90;;;;;;2081804;28;19909;-68
2022/04/09 00:05:36;;;;;;;;;;;6.40;99.90;;;;;;2078758;28;19968;-68
2022/04/09 00:06:36;;;;;;;;;;;6.40;99.90;;;;;;2080719;28;20020;-68
2022/04/09 00:07:37;;;;;;;;;;;6.40;99.90;;;;;;2080520;28;19921;-68
2022/04/09 00:08:38;;;;;;;;;;;6.40;99.90;;;;;;2080303;28;19917;-68
2022/04/09 00:09:39;;;;;;;;;;;6.40;99.90;;;;;;2080038;28;19917;-68
2022/04/09 00:10:39;;;;;;;;;;;6.40;99.90;;;;;;2082632;28;19909;-68
2022/04/09 00:11:41;;;;;;;;;;;6.40;99.90;;;;;;2082500;28;19908;-68
2022/04/09 00:12:46;;;;;;;;;;;6.40;99.90;;;;;;2080579;28;20019;-68
2022/04/09 00:13:46;;;;;;;;;;;6.40;99.90;;;;;;2079090;28;19913;-68
2022/04/09 00:14:47;;;;;;;;;;;6.40;99.90;;;;;;2081243;28;19918;-68
2022/04/09 00:15:47;;;;;;;;;;;6.40;99.90;;;;;;2080277;28;19913;-68
2022/04/09 00:16:47;;;;;;;;;;;6.40;99.90;;;;;;2079959;28;19909;-68
2022/04/09 00:17:48;;;;;;;;;;;6.40;99.90;;;;;;2083625;28;19924;-68
2022/04/09 00:18:48;;;;;;;;;;;6.40;99.90;;;;;;2081833;28;19916;-68
2022/04/09 00:19:49;;;;;;;;;;;6.40;99.90;;;;;;2082677;28;19909;-68
2022/04/09 00:20:49;;;;;;;;;;;6.40;99.90;;;;;;2078638;28;20701;-68
2022/04/09 00:21:50;;;;;;;;;;;6.40;99.90;;;;;;2080008;28;19920;-68
2022/04/09 00:22:51;;;;;;;;;;;6.40;99.90;;;;;;2082200;28;19963;-68
2022/04/09 00:23:52;;;;;;;;;;;6.40;99.90;;;;;;2082243;28;20340;-68
2022/04/09 00:24:53;;;;;;;;;;;6.40;99.90;;;;;;2085626;28;20364;-68
2022/04/09 00:25:53;;;;;;;;;;;6.40;99.90;;;;;;2084741;28;20336;-68
2022/04/09 00:26:54;;;;;;;;;;;6.40;99.90;;;;;;2083345;28;19917;-68
2022/04/09 00:27:54;;;;;;;;;;;6.40;99.90;;;;;;2084221;28;19913;-68
2022/04/09 00:28:55;;;;;;;;;;;6.30;99.90;;;;;;2080604;28;20503;-68
2022/04/09 00:29:55;;;;;;;;;;;6.40;99.90;;;;;;2080807;28;19913;-68
2022/04/09 00:30:56;;;;;;;;;;;6.40;99.90;;;;;;2080942;28;19924;-68
2022/04/09 00:31:56;;;;;;;;;;;6.40;99.90;;;;;;2080848;28;19913;-68
2022/04/09 00:32:57;;;;;;;;;;;6.30;99.90;;;;;;2076659;28;19936;-68
2022/04/09 00:33:57;;;;;;;;;;;6.30;99.90;;;;;;2073019;28;19921;-68
2022/04/09 00:34:58;;;;;;;;;;;6.30;99.90;;;;;;2083118;28;20395;-68
2022/04/09 00:35:58;;;;;;;;;;;6.30;99.90;;;;;;2085310;28;19913;-68
2022/04/09 00:36:59;;;;;;;;;;;6.30;99.90;;;;;;2085782;28;20345;-68
2022/04/09 00:37:59;;;;;;;;;;;6.30;99.90;;;;;;2080225;28;19919;-68
2022/04/09 00:39:00;;;;;;;;;;;6.30;99.90;;;;;;2079732;28;19920;-68
2022/04/09 00:40:00;;;;;;;;;;;6.30;99.90;;;;;;2079496;28;19914;-68
2022/04/09 00:41:01;;;;;;;;;;;6.30;99.90;;;;;;2085179;28;19909;-68
2022/04/09 00:42:01;;;;;;;;;;;6.30;99.90;;;;;;2082556;28;19924;-68
2022/04/09 00:43:02;;;;;;;;;;;6.30;99.90;;;;;;2083379;28;20395;-68
2022/04/09 00:44:03;;;;;;;;;;;6.30;99.90;;;;;;2084112;28;19913;-68
2022/04/09 00:45:05;;;;;;;;;;;6.30;99.90;;;;;;2081431;28;19909;-68
2022/04/09 00:46:05;;;;;;;;;;;6.30;99.90;;;;;;2081038;28;19987;-68
2022/04/09 00:47:06;;;;;;;;;;;6.30;99.90;;;;;;2079839;28;19913;-68
2022/04/09 00:48:08;;;;;;;;;;;6.30;99.90;;;;;;2080976;28;19963;-68
2022/04/09 00:49:09;;;;;;;;;;;6.30;99.90;;;;;;2085224;28;19917;-68
2022/04/09 00:50:10;;;;;;;;;;;6.30;99.90;;;;;;2082060;28;19913;-68
2022/04/09 00:51:10;;;;;;;;;;;6.30;99.90;;;;;;2083089;28;19918;-68
2022/04/09 00:52:12;;;;;;;;;;;6.30;99.90;;;;;;2083088;28;19913;-68
2022/04/09 00:53:14;;;;;;;;;;;6.30;99.90;;;;;;2083463;28;19916;-68
2022/04/09 00:54:15;;;;;;;;;;;6.30;99.90;;;;;;2080045;28;19917;-68
2022/04/09 00:55:18;;;;;;;;;;;6.30;99.90;;;;;;2081772;28;19910;-68
2022/04/09 00:56:21;;;;;;;;;;;6.30;99.90;;;;;;2079738;28;19963;-68
2022/04/09 00:57:25;;;;;;;;;;;6.30;99.90;;;;;;2085114;28;19913;-68
2022/04/09 00:58:26;;;;;;;;;;;6.30;99.90;;;;;;2083073;28;20320;-68
2022/04/09 00:59:29;;;;;;;;;;;6.30;99.90;;;;;;2084313;28;19955;-68
2022/04/09 01:00:29;;;;;;;;;;;6.30;99.90;;;;;;2083775;28;19924;-67
2022/04/09 01:01:32;;;;;;;;;;;6.30;99.90;;;;;;2077283;28;19949;-67
2022/04/09 01:02:32;;;;;;;;;;;6.30;99.90;;;;;;2078711;28;20377;-67
2022/04/09 01:03:33;;;;;;;;;;;6.40;99.90;;;;;;2082106;28;20288;-67
2022/04/09 01:04:34;;;;;;;;;;;6.30;99.90;;;;;;2080448;28;19913;-68
2022/04/09 01:05:35;;;;;;;;;;;6.30;99.90;;;;;;2084314;28;19949;-68
2022/04/09 01:06:36;;;;;;;;;;;6.30;99.90;;;;;;2084414;28;19959;-68
2022/04/09 01:07:36;;;;;;;;;;;6.30;99.90;;;;;;2081170;28;19909;-68
2022/04/09 01:08:37;;;;;;;;;;;6.30;99.90;;;;;;2080815;28;19913;-68
2022/04/09 01:09:37;;;;;;;;;;;6.30;99.90;;;;;;2082533;28;19923;-68
2022/04/09 01:10:37;;;;;;;;;;;6.30;99.90;;;;;;2078810;28;20277;-68
2022/04/09 01:11:39;;;;;;;;;;;6.40;99.90;;;;;;2081479;28;19920;-68
2022/04/09 01:12:40;;;;;;;;;;;6.40;99.90;;;;;;2080595;28;19908;-68
2022/04/09 01:13:46;;;;;;;;;;;6.40;99.90;;;;;;2084294;28;19959;-68
2022/04/09 01:14:47;;;;;;;;;;;6.40;99.90;;;;;;2080915;28;20288;-68
2022/04/09 01:15:47;;;;;;;;;;;6.40;99.90;;;;;;2080702;28;19978;-68
2022/04/09 01:16:47;;;;;;;;;;;6.40;99.90;;;;;;2080743;28;19913;-68
2022/04/09 01:17:48;;;;;;;;;;;6.40;99.90;;;;;;2080305;28;20016;-68
2022/04/09 01:18:48;;;;;;;;;;;6.40;99.90;;;;;;2078654;28;19917;-68
2022/04/09 01:19:49;;;;;;;;;;;6.40;99.90;;;;;;2081146;28;19914;-68
2022/04/09 01:20:49;;;;;;;;;;;6.40;99.90;;;;;;2078274;28;19913;-68
2022/04/09 01:21:50;;;;;;;;;;;6.30;99.90;;;;;;2080395;28;20651;-68
2022/04/09 01:22:50;;;;;;;;;;;6.40;99.90;;;;;;2083896;28;19917;-68
2022/04/09 01:23:51;;;;;;;;;;;6.40;99.90;;;;;;2081745;28;19920;-68
2022/04/09 01:24:51;;;;;;;;;;;6.30;99.90;;;;;;2081199;28;19913;-68
2022/04/09 01:25:52;;;;;;;;;;;6.30;99.90;;;;;;2080020;28;19936;-68
2022/04/09 01:26:52;;;;;;;;;;;6.30;99.90;;;;;;2078479;28;19917;-68
2022/04/09 01:27:53;;;;;;;;;;;6.30;99.90;;;;;;2080253;28;19958;-68
2022/04/09 01:28:54;;;;;;;;;;;6.30;99.90;;;;;;2079781;28;19964;-68
2022/04/09 01:29:54;;;;;;;;;;;6.30;99.90;;;;;;2083568;28;20363;-68
2022/04/09 01:30:55;;;;;;;;;;;6.30;99.90;;;;;;2083710;28;20922;-68
2022/04/09 01:31:55;;;;;;;;;;;6.30;99.90;;;;;;2081311;28;20615;-68
2022/04/09 01:32:56;;;;;;;;;;;6.30;99.90;;;;;;2082336;28;19909;-68
2022/04/09 01:34:12;;;;;;;;;;;6.30;99.90;;;;;;2078973;28;19913;-68
2022/04/09 01:35:13;;;;;;;;;;;6.30;99.90;;;;;;2076647;28;19914;-67
2022/04/09 01:36:14;;;;;;;;;;;6.30;99.90;;;;;;2082724;28;20271;-68
2022/04/09 01:37:15;;;;;;;;;;;6.30;99.90;;;;;;2080113;28;19910;-68
2022/04/09 01:38:16;;;;;;;;;;;6.30;99.90;;;;;;2080872;28;19920;-68
2022/04/09 01:39:18;;;;;;;;;;;6.30;99.90;;;;;;2081653;28;19952;-68
2022/04/09 01:40:18;;;;;;;;;;;6.20;99.90;;;;;;2083327;28;20018;-68
2022/04/09 01:41:18;;;;;;;;;;;6.20;99.90;;;;;;2079787;28;20001;-68
2022/04/09 01:42:21;;;;;;;;;;;6.20;99.90;;;;;;2082489;28;20257;-68
2022/04/09 01:43:22;;;;;;;;;;;6.20;99.90;;;;;;2077979;28;19963;-68
2022/04/09 01:44:22;;;;;;;;;;;6.20;99.90;;;;;;2081278;28;19971;-68
2022/04/09 01:45:23;;;;;;;;;;;6.20;99.90;;;;;;2078902;28;19917;-68
2022/04/09 01:46:23;;;;;;;;;;;6.20;99.90;;;;;;2082562;28;19917;-68
2022/04/09 01:47:24;;;;;;;;;;;6.20;99.90;;;;;;2081561;28;19913;-68
2022/04/09 01:48:24;;;;;;;;;;;6.20;99.90;;;;;;2083112;28;19916;-68
2022/04/09 01:49:24;;;;;;;;;;;6.20;99.90;;;;;;2079315;28;19917;-68
2022/04/09 01:50:29;;;;;;;;;;;6.20;99.90;;;;;;2081772;28;20315;-68
2022/04/09 01:51:30;;;;;;;;;;;6.20;99.90;;;;;;2078733;28;19948;-68
2022/04/09 01:52:30;;;;;;;;;;;6.20;99.90;;;;;;2075910;28;19920;-68
2022/04/09 01:53:31;;;;;;;;;;;6.20;99.90;;;;;;2082725;28;19925;-68
2022/04/09 01:54:31;;;;;;;;;;;6.20;99.90;;;;;;2080409;28;20008;-68
2022/04/09 01:55:32;;;;;;;;;;;6.20;99.90;;;;;;2079762;28;20036;-68
2022/04/09 01:56:33;;;;;;;;;;;6.20;99.90;;;;;;2082148;28;19913;-68
2022/04/09 01:57:34;;;;;;;;;;;6.20;99.90;;;;;;2081751;28;19919;-68
2022/04/09 01:58:34;;;;;;;;;;;6.20;99.90;;;;;;2081012;28;19996;-68
2022/04/09 01:59:35;;;;;;;;;;;6.20;99.90;;;;;;2083399;28;20303;-68
2022/04/09 02:00:36;;;;;;;;;;;6.20;99.90;;;;;;2083891;28;19909;-68
2022/04/09 02:01:36;;;;;;;;;;;6.20;99.90;;;;;;2083076;28;19948;-68
2022/04/09 02:02:37;;;;;;;;;;;6.20;99.90;;;;;;2081445;28;19920;-68
2022/04/09 02:03:37;;;;;;;;;;;6.10;99.90;;;;;;2082317;28;19920;-68
2022/04/09 02:04:38;;;;;;;;;;;6.10;99.90;;;;;;2082420;28;19979;-68
2022/04/09 02:05:38;;;;;;;;;;;6.20;99.90;;;;;;2077982;28;19920;-68
2022/04/09 02:06:39;;;;;;;;;;;6.20;99.90;;;;;;2081236;28;19924;-68
2022/04/09 02:07:41;;;;;;;;;;;6.20;99.90;;;;;;2077477;28;20365;-68
2022/04/09 02:08:41;;;;;;;;;;;6.20;99.90;;;;;;2083808;28;19912;-68
2022/04/09 02:09:41;;;;;;;;;;;6.20;99.90;;;;;;2083585;28;19908;-68
2022/04/09 02:10:42;;;;;;;;;;;6.20;99.90;;;;;;2081770;28;19909;-68
2022/04/09 02:11:43;;;;;;;;;;;6.20;99.90;;;;;;2082745;28;19991;-68
2022/04/09 02:12:43;;;;;;;;;;;6.20;99.90;;;;;;2080233;28;20416;-68
2022/04/09 02:13:44;;;;;;;;;;;6.20;99.90;;;;;;2081536;28;19917;-68
2022/04/09 02:14:44;;;;;;;;;;;6.20;99.90;;;;;;2080991;28;20031;-68
2022/04/09 02:15:45;;;;;;;;;;;6.20;99.90;;;;;;2077995;28;19909;-68
2022/04/09 02:16:45;;;;;;;;;;;6.20;99.90;;;;;;2083408;28;19908;-68
2022/04/09 02:17:46;;;;;;;;;;;6.20;99.90;;;;;;2082698;28;19978;-68
2022/04/09 02:18:46;;;;;;;;;;;6.20;99.90;;;;;;2081337;28;19909;-68
2022/04/09 02:19:47;;;;;;;;;;;6.20;99.90;;;;;;2082601;28;20003;-68
2022/04/09 02:20:47;;;;;;;;;;;6.20;99.90;;;;;;2078997;28;19913;-68
2022/04/09 02:21:48;;;;;;;;;;;6.20;99.90;;;;;;2078416;28;19944;-68
2022/04/09 02:22:48;;;;;;;;;;;6.20;99.90;;;;;;2079558;28;20020;-68
2022/04/09 02:23:49;;;;;;;;;;;6.20;99.90;;;;;;2080590;28;19921;-68
2022/04/09 02:24:49;;;;;;;;;;;6.20;99.90;;;;;;2083274;28;19961;-68
2022/04/09 02:25:50;;;;;;;;;;;6.20;99.90;;;;;;2081926;28;19909;-68
2022/04/09 02:26:50;;;;;;;;;;;6.20;99.90;;;;;;2078880;28;19944;-68
2022/04/09 02:27:51;;;;;;;;;;;6.10;99.90;;;;;;2078106;28;19993;-68
2022/04/09 02:28:52;;;;;;;;;;;6.20;99.90;;;;;;2081040;28;20394;-68
2022/04/09 02:29:52;;;;;;;;;;;6.20;99.90;;;;;;2081795;28;20515;-68
2022/04/09 02:30:53;;;;;;;;;;;6.20;99.90;;;;;;2079885;28;19978;-68
2022/04/09 02:31:54;;;;;;;;;;;6.20;99.90;;;;;;2079808;28;19963;-68
2022/04/09 02:32:55;;;;;;;;;;;6.20;99.90;;;;;;2083896;28;20203;-68
2022/04/09 02:33:55;;;;;;;;;;;6.20;99.90;;;;;;2080652;28;19925;-68
2022/04/09 02:34:56;;;;;;;;;;;6.20;99.90;;;;;;2080685;28;19986;-68
2022/04/09 02:35:57;;;;;;;;;;;6.20;99.90;;;;;;2083337;28;19967;-68
2022/04/09 02:36:58;;;;;;;;;;;6.10;99.90;;;;;;2079092;28;20007;-68
2022/04/09 02:37:58;;;;;;;;;;;6.10;99.90;;;;;;2080476;28;19913;-68
2022/04/09 02:38:59;;;;;;;;;;;6.20;99.90;;;;;;2077265;28;19913;-68
2022/04/09 02:40:01;;;;;;;;;;;6.20;99.90;;;;;;2082410;28;19913;-68
2022/04/09 02:41:01;;;;;;;;;;;6.20;99.90;;;;;;2083570;28;19951;-68
2022/04/09 02:42:02;;;;;;;;;;;6.20;99.90;;;;;;2081253;28;19920;-68
2022/04/09 02:43:02;;;;;;;;;;;6.20;99.90;;;;;;2080631;28;19953;-68
2022/04/09 02:44:03;;;;;;;;;;;6.20;99.90;;;;;;2079634;28;19913;-68
2022/04/09 02:45:04;;;;;;;;;;;6.20;99.90;;;;;;2079339;28;19910;-68
2022/04/09 02:46:05;;;;;;;;;;;6.20;99.90;;;;;;2078659;28;19947;-68
2022/04/09 02:47:05;;;;;;;;;;;6.20;99.90;;;;;;2079083;28;19909;-68
2022/04/09 02:48:06;;;;;;;;;;;6.20;99.90;;;;;;2083949;28;20372;-68
2022/04/09 02:49:06;;;;;;;;;;;6.20;99.90;;;;;;2084032;28;19967;-68
2022/04/09 02:50:07;;;;;;;;;;;6.20;99.90;;;;;;2080014;28;19917;-68
2022/04/09 02:51:08;;;;;;;;;;;6.20;99.90;;;;;;2081332;28;19924;-68
2022/04/09 02:52:08;;;;;;;;;;;6.20;99.90;;;;;;2079442;28;19917;-68
2022/04/09 02:53:11;;;;;;;;;;;6.20;99.90;;;;;;2081600;28;19923;-68
2022/04/09 02:54:18;;;;;;;;;;;6.20;99.90;;;;;;2078026;28;20380;-68
2022/04/09 02:55:18;;;;;;;;;;;6.20;99.90;;;;;;2078674;28;19928;-68
2022/04/09 02:56:19;;;;;;;;;;;6.20;99.90;;;;;;2077420;28;19909;-68
2022/04/09 02:57:19;;;;;;;;;;;6.20;99.90;;;;;;2082479;28;19920;-68
2022/04/09 02:58:19;;;;;;;;;;;6.20;99.90;;;;;;2080840;28;19974;-68
2022/04/09 02:59:20;;;;;;;;;;;6.20;99.90;;;;;;2078300;28;20012;-68
2022/04/09 03:00:20;;;;;;;;;;;6.20;99.90;;;;;;2077465;28;19916;-68
2022/04/09 03:01:21;;;;;;;;;;;6.20;99.90;;;;;;2077539;28;19948;-68
2022/04/09 03:02:21;;;;;;;;;;;6.20;99.90;;;;;;2076607;28;19910;-68
2022/04/09 03:03:22;;;;;;;;;;;6.30;99.90;;;;;;2081122;28;19920;-68
2022/04/09 03:04:22;;;;;;;;;;;6.20;99.90;;;;;;2083700;28;19913;-68
2022/04/09 03:05:23;;;;;;;;;;;6.20;99.90;;;;;;2081605;28;19916;-68
2022/04/09 03:06:23;;;;;;;;;;;6.30;99.90;;;;;;2082486;28;20531;-68
2022/04/09 03:07:24;;;;;;;;;;;6.30;99.90;;;;;;2079899;28;19984;-68
2022/04/09 03:08:24;;;;;;;;;;;6.30;99.90;;;;;;2078379;28;19909;-68
2022/04/09 03:09:25;;;;;;;;;;;6.30;99.90;;;;;;2080008;28;19909;-68
2022/04/09 03:10:25;;;;;;;;;;;6.30;99.90;;;;;;2077836;28;19920;-68
2022/04/09 03:11:26;;;;;;;;;;;6.30;99.90;;;;;;2083069;28;19910;-68
2022/04/09 03:12:26;;;;;;;;;;;6.30;99.90;;;;;;2082991;28;19920;-68
2022/04/09 03:13:27;;;;;;;;;;;6.30;99.90;;;;;;2083195;28;19921;-68
2022/04/09 03:14:27;;;;;;;;;;;6.30;99.90;;;;;;2082758;28;19964;-68
2022/04/09 03:15:29;;;;;;;;;;;6.30;99.90;;;;;;2079345;28;20979;-68
2022/04/09 03:16:32;;;;;;;;;;;6.30;99.90;;;;;;2081058;28;19909;-68
2022/04/09 03:17:32;;;;;;;;;;;6.30;99.90;;;;;;2078677;28;20486;-68
2022/04/09 03:18:33;;;;;;;;;;;6.30;99.90;;;;;;2078743;28;20625;-68
2022/04/09 03:19:33;;;;;;;;;;;6.30;99.90;;;;;;2083792;28;19913;-68
2022/04/09 03:20:34;;;;;;;;;;;6.30;99.90;;;;;;2080351;28;19948;-68
2022/04/09 03:21:34;;;;;;;;;;;6.30;99.90;;;;;;2081321;28;19945;-68
2022/04/09 03:22:35;;;;;;;;;;;6.30;99.90;;;;;;2082139;28;20648;-68
2022/04/09 03:23:35;;;;;;;;;;;6.30;99.90;;;;;;2081916;28;19913;-68
2022/04/09 03:24:36;;;;;;;;;;;6.30;99.90;;;;;;2081325;28;20267;-68
2022/04/09 03:25:36;;;;;;;;;;;6.30;99.90;;;;;;2076794;28;20364;-68
2022/04/09 03:26:36;;;;;;;;;;;6.30;99.90;;;;;;2079419;28;19917;-68
2022/04/09 03:27:37;;;;;;;;;;;6.30;99.90;;;;;;2083806;28;19917;-68
2022/04/09 03:28:38;;;;;;;;;;;6.30;99.90;;;;;;2081800;28;19916;-68
2022/04/09 03:29:39;;;;;;;;;;;6.30;99.90;;;;;;2081002;28;19962;-68
2022/04/09 03:30:41;;;;;;;;;;;6.30;99.90;;;;;;2081398;28;19909;-68
2022/04/09 03:31:41;;;;;;;;;;;6.30;99.90;;;;;;2078700;28;20000;-68
2022/04/09 03:32:42;;;;;;;;;;;6.30;99.90;;;;;;2081040;28;19909;-68
2022/04/09 03:33:42;;;;;;;;;;;6.30;99.90;;;;;;2080585;28;19912;-68
2022/04/09 03:34:43;;;;;;;;;;;6.30;99.90;;;;;;2082495;28;19921;-68
2022/04/09 03:35:43;;;;;;;;;;;6.30;99.90;;;;;;2079175;28;19917;-68
2022/04/09 03:36:44;;;;;;;;;;;6.30;99.90;;;;;;2083227;28;19913;-68
2022/04/09 03:37:45;;;;;;;;;;;6.30;99.90;;;;;;2080358;28;20320;-68
2022/04/09 03:38:45;;;;;;;;;;;6.30;99.90;;;;;;2080185;28;20387;-68
2022/04/09 03:39:46;;;;;;;;;;;6.30;99.90;;;;;;2078822;28;19913;-68
2022/04/09 03:40:46;;;;;;;;;;;6.30;99.90;;;;;;2081409;28;20260;-68
2022/04/09 03:41:47;;;;;;;;;;;6.30;99.90;;;;;;2076868;28;20000;-68
2022/04/09 03:42:47;;;;;;;;;;;6.30;99.90;;;;;;2078163;28;19938;-68
2022/04/09 03:43:49;;;;;;;;;;;6.30;99.90;;;;;;2083217;28;19916;-68
2022/04/09 03:44:49;;;;;;;;;;;6.40;99.90;;;;;;2081620;28;19978;-68
2022/04/09 03:45:50;;;;;;;;;;;6.40;99.90;;;;;;2077888;28;19917;-68
2022/04/09 03:46:56;;;;;;;;;;;6.40;99.90;;;;;;2078155;28;19920;-68
2022/04/09 03:47:56;;;;;;;;;;;6.30;99.90;;;;;;2077182;28;19913;-68
2022/04/09 03:48:57;;;;;;;;;;;6.40;99.90;;;;;;2080055;28;20376;-68
2022/04/09 03:49:59;;;;;;;;;;;6.40;99.90;;;;;;2079512;28;19916;-68
2022/04/09 03:51:00;;;;;;;;;;;6.40;99.90;;;;;;2083591;28;19939;-68
2022/04/09 03:52:00;;;;;;;;;;;6.40;99.90;;;;;;2083099;28;19913;-68
2022/04/09 03:53:01;;;;;;;;;;;6.40;99.90;;;;;;2082014;28;19917;-68
2022/04/09 03:54:01;;;;;;;;;;;6.40;99.90;;;;;;2082021;28;19913;-68
2022/04/09 03:55:02;;;;;;;;;;;6.40;99.90;;;;;;2081055;28;20006;-68
2022/04/09 03:56:04;;;;;;;;;;;6.40;99.90;;;;;;2077091;28;20345;-68
2022/04/09 03:57:05;;;;;;;;;;;6.40;99.90;;;;;;2077208;28;19963;-68
2022/04/09 03:58:05;;;;;;;;;;;6.40;99.90;;;;;;2078565;28;19970;-68
2022/04/09 03:59:06;;;;;;;;;;;6.40;99.90;;;;;;2083717;28;19915;-68
2022/04/09 04:00:07;;;;;;;;;;;6.40;99.90;;;;;;2079793;28;20352;-68
2022/04/09 04:01:07;;;;;;;;;;;6.30;99.90;;;;;;2079517;28;19913;-68
2022/04/09 04:02:08;;;;;;;;;;;6.30;99.90;;;;;;2079725;28;19917;-68
2022/04/09 04:03:09;;;;;;;;;;;6.30;99.90;;;;;;2080460;28;20004;-68
2022/04/09 04:04:11;;;;;;;;;;;6.30;99.90;;;;;;2081222;28;19913;-68
2022/04/09 04:05:11;;;;;;;;;;;6.30;99.90;;;;;;2077457;28;19957;-68
2022/04/09 04:06:12;;;;;;;;;;;6.30;99.90;;;;;;2079300;28;20471;-68
2022/04/09 04:07:13;;;;;;;;;;;6.30;99.90;;;;;;2083024;28;19920;-68
2022/04/09 04:08:14;;;;;;;;;;;6.30;99.90;;;;;;2079781;28;19913;-68
2022/04/09 04:09:16;;;;;;;;;;;6.30;99.90;;;;;;2073576;28;19984;-68
2022/04/09 04:10:17;;;;;;;;;;;6.30;99.90;;;;;;2073565;28;19914;-68
2022/04/09 04:11:17;;;;;;;;;;;6.30;99.90;;;;;;2081220;28;20463;-68
2022/04/09 04:12:18;;;;;;;;;;;6.30;99.90;;;;;;2078854;28;19910;-68
2022/04/09 04:13:18;;;;;;;;;;;6.30;99.90;;;;;;2076738;28;19909;-68
2022/04/09 04:14:19;;;;;;;;;;;6.30;99.90;;;;;;2079714;28;20277;-68
2022/04/09 04:15:19;;;;;;;;;;;6.30;99.90;;;;;;2082043;28;19913;-68
2022/04/09 04:16:20;;;;;;;;;;;6.20;99.90;;;;;;2080373;28;19979;-68
2022/04/09 04:17:20;;;;;;;;;;;6.30;99.90;;;;;;2082178;28;19909;-68
2022/04/09 04:18:21;;;;;;;;;;;6.20;99.90;;;;;;2079826;28;20008;-68
2022/04/09 04:19:21;;;;;;;;;;;6.30;99.90;;;;;;2081467;28;19910;-68
2022/04/09 04:20:23;;;;;;;;;;;6.30;99.90;;;;;;2077598;28;19936;-68
2022/04/09 04:21:24;;;;;;;;;;;6.20;99.90;;;;;;2070912;28;19948;-68
2022/04/09 04:22:24;;;;;;;;;;;6.30;99.90;;;;;;2072497;28;19917;-68
2022/04/09 04:23:25;;;;;;;;;;;6.30;99.90;;;;;;2082291;28;19916;-68
2022/04/09 04:24:25;;;;;;;;;;;6.30;99.90;;;;;;2081529;28;19992;-68
2022/04/09 04:25:25;;;;;;;;;;;6.30;99.90;;;;;;2080346;28;20731;-68
2022/04/09 04:26:26;;;;;;;;;;;6.30;99.90;;;;;;2079681;28;19914;-68
2022/04/09 04:27:26;;;;;;;;;;;6.20;99.90;;;;;;2081074;28;19910;-68
2022/04/09 04:28:27;;;;;;;;;;;6.20;99.90;;;;;;2077422;28;19914;-68
2022/04/09 04:29:27;;;;;;;;;;;6.20;99.90;;;;;;2081448;28;19917;-68
2022/04/09 04:30:28;;;;;;;;;;;6.20;99.90;;;;;;2084066;28;19955;-68
2022/04/09 04:31:28;;;;;;;;;;;6.20;99.90;;;;;;2083268;28;19913;-68
2022/04/09 04:32:29;;;;;;;;;;;6.20;99.90;;;;;;2081842;28;20325;-68
2022/04/09 04:33:29;;;;;;;;;;;6.20;99.90;;;;;;2078898;28;19919;-68
2022/04/09 04:34:30;;;;;;;;;;;6.20;99.90;;;;;;2079130;28;19957;-68
2022/04/09 04:35:30;;;;;;;;;;;6.20;99.90;;;;;;2080234;28;19964;-68
2022/04/09 04:36:30;;;;;;;;;;;6.20;99.90;;;;;;2081084;28;19935;-68
2022/04/09 04:37:37;;;;;;;;;;;6.10;99.90;;;;;;2081734;28;20277;-68
2022/04/09 04:38:38;;;;;;;;;;;6.20;99.90;;;;;;2083992;28;19984;-68
2022/04/09 04:39:38;;;;;;;;;;;6.10;99.90;;;;;;2082077;28;19909;-68
2022/04/09 04:40:39;;;;;;;;;;;6.10;99.90;;;;;;2081257;28;19920;-68
2022/04/09 04:41:39;;;;;;;;;;;6.10;99.90;;;;;;2081014;28;19958;-68
2022/04/09 04:42:40;;;;;;;;;;;6.10;99.90;;;;;;2078996;28;19909;-68
2022/04/09 04:43:40;;;;;;;;;;;6.10;99.90;;;;;;2080156;28;19916;-68
2022/04/09 04:44:41;;;;;;;;;;;6.10;99.90;;;;;;2076672;28;19913;-68
2022/04/09 04:45:41;;;;;;;;;;;6.10;99.90;;;;;;2082864;28;19909;-68
2022/04/09 04:46:42;;;;;;;;;;;6.10;99.90;;;;;;2079564;28;19913;-68
2022/04/09 04:47:43;;;;;;;;;;;6.00;99.90;;;;;;2081878;28;19909;-68
2022/04/09 04:48:44;;;;;;;;;;;6.00;99.90;;;;;;2082235;28;19913;-68
2022/04/09 04:49:44;;;;;;;;;;;6.00;99.90;;;;;;2079041;28;19909;-68
2022/04/09 04:50:44;;;;;;;;;;;6.00;99.90;;;;;;2080324;28;20349;-68
2022/04/09 04:51:45;;;;;;;;;;;6.10;99.90;;;;;;2077488;28;19917;-68
2022/04/09 04:52:46;;;;;;;;;;;6.00;99.90;;;;;;2077888;28;19963;-68
2022/04/09 04:53:46;;;;;;;;;;;6.00;99.90;;;;;;2079354;28;19909;-68
2022/04/09 04:54:47;;;;;;;;;;;6.00;99.90;;;;;;2080908;28;20405;-68
2022/04/09 04:55:47;;;;;;;;;;;6.00;99.90;;;;;;2081180;28;20344;-68
2022/04/09 04:56:47;;;;;;;;;;;6.00;99.90;;;;;;2081685;28;19912;-68
2022/04/09 04:57:52;;;;;;;;;;;6.00;99.90;;;;;;2079714;28;19958;-68
2022/04/09 04:58:52;;;;;;;;;;;6.00;99.90;;;;;;2080433;28;19924;-68
2022/04/09 04:59:55;;;;;;;;;;;5.90;99.90;;;;;;2077654;28;20020;-68
2022/04/09 05:00:56;;;;;;;;;;;5.90;99.90;;;;;;2080011;28;19913;-68
2022/04/09 05:01:56;;;;;;;;;;;5.90;99.90;;;;;;2074736;28;19913;-68
2022/04/09 05:02:58;;;;;;;;;;;5.90;99.90;;;;;;2072843;28;19975;-68
2022/04/09 05:03:58;;;;;;;;;;;5.90;99.90;;;;;;2081470;28;20031;-68
2022/04/09 05:05:01;;;;;;;;;;;5.90;99.90;;;;;;2081878;28;19917;-68
2022/04/09 05:06:01;;;;;;;;;;;5.90;99.90;;;;;;2079108;28;20273;-68
2022/04/09 05:07:02;;;;;;;;;;;5.90;99.90;;;;;;2080069;28;19987;-68
2022/04/09 05:08:02;;;;;;;;;;;5.90;99.90;;;;;;2077899;28;19909;-68
2022/04/09 05:09:03;;;;;;;;;;;5.90;99.90;;;;;;2077931;28;19909;-68
2022/04/09 05:10:04;;;;;;;;;;;5.80;99.90;;;;;;2085307;28;19913;-68
2022/04/09 05:11:05;;;;;;;;;;;5.80;99.90;;;;;;2083088;28;19928;-68
2022/04/09 05:12:05;;;;;;;;;;;5.80;99.90;;;;;;2084205;28;19909;-68
2022/04/09 05:13:06;;;;;;;;;;;5.80;99.90;;;;;;2081804;28;19917;-68
2022/04/09 05:14:06;;;;;;;;;;;5.80;99.90;;;;;;2081743;28;19916;-68
2022/04/09 05:15:08;;;;;;;;;;;5.80;99.90;;;;;;2080790;28;20012;-68
2022/04/09 05:16:08;;;;;;;;;;;5.80;99.90;;;;;;2080454;28;19909;-68
2022/04/09 05:17:09;;;;;;;;;;;5.80;99.90;;;;;;2078922;28;20685;-68
2022/04/09 05:18:09;;;;;;;;;;;5.80;99.90;;;;;;2084969;28;19956;-68
2022/04/09 05:19:10;;;;;;;;;;;5.80;99.90;;;;;;2084499;28;19913;-68
2022/04/09 05:20:11;;;;;;;;;;;5.80;99.90;;;;;;2082904;28;19909;-68
2022/04/09 05:21:12;;;;;;;;;;;5.80;99.90;;;;;;2081180;28;19957;-68
2022/04/09 05:22:12;;;;;;;;;;;5.80;99.90;;;;;;2082388;28;19917;-68
2022/04/09 05:23:13;;;;;;;;;;;5.80;99.90;;;;;;2079975;28;19947;-68
2022/04/09 05:24:13;;;;;;;;;;;5.80;99.90;;;;;;2081280;28;19913;-68
2022/04/09 05:25:16;;;;;;;;;;;5.80;99.90;;;;;;2077414;28;20273;-68
2022/04/09 05:26:16;;;;;;;;;;;5.80;99.90;;;;;;2083803;28;19936;-68
2022/04/09 05:27:16;;;;;;;;;;;5.80;99.90;;;;;;2084497;28;19909;-68
2022/04/09 05:28:17;;;;;;;;;;;5.80;99.90;;;;;;2082044;28;19960;-68
2022/04/09 05:29:17;;;;;;;;;;;5.80;99.90;;;;;;2075269;28;19925;-68
2022/04/09 05:30:18;;;;;;;;;;;5.90;99.90;;;;;;2074481;28;19910;-68
2022/04/09 05:31:20;;;;;;;;;;;5.90;99.90;;;;;;2077368;28;19913;-68
2022/04/09 05:32:20;;;;;;;;;;;5.90;99.90;;;;;;2078537;28;19917;-68
2022/04/09 05:33:21;;;;;;;;;;;5.90;99.90;;;;;;2076928;28;20365;-68
2022/04/09 05:34:21;;;;;;;;;;;5.90;99.90;;;;;;2080086;28;20001;-68
2022/04/09 05:35:22;;;;;;;;;;;5.90;99.90;;;;;;2078097;28;19920;-68
2022/04/09 05:36:22;;;;;;;;;;;5.90;99.90;;;;;;2077938;28;19913;-68
2022/04/09 05:37:23;;;;;;;;;;;5.90;99.90;;;;;;2077713;28;19953;-68
2022/04/09 05:38:23;;;;;;;;;;;5.90;99.90;;;;;;2074767;28;19917;-68
2022/04/09 05:39:24;;;;;;;;;;;5.90;99.90;;;;;;2073090;28;19910;-68
2022/04/09 05:40:24;;;;;;;;;;;5.90;99.90;;;;;;2074312;28;19917;-68
2022/04/09 05:41:25;;;;;;;;;;;5.90;99.90;;;;;;2074361;28;20029;-68
2022/04/09 05:42:25;;;;;;;;;;;5.90;99.90;;;;;;2079619;28;19913;-68
2022/04/09 05:43:26;;;;;;;;;;;6.00;99.90;;;;;;2078808;28;19924;-68
2022/04/09 05:44:27;;;;;;;;;;;5.90;99.90;;;;;;2075715;28;20297;-68
2022/04/09 05:45:27;;;;;;;;;;;6.00;99.90;;;;;;2078618;28;19918;-68
2022/04/09 05:46:27;;;;;;;;;;;6.00;99.90;;;;;;2080439;28;19976;-68
2022/04/09 05:47:28;;;;;;;;;;;6.00;99.90;;;;;;2078039;28;19914;-68
2022/04/09 05:48:28;;;;;;;;;;;6.00;99.90;;;;;;2081068;28;19931;-68
2022/04/09 05:49:29;;;;;;;;;;;5.90;99.90;;;;;;2084520;28;20520;-68
2022/04/09 05:50:29;;;;;;;;;;;6.00;99.90;;;;;;2081623;28;19920;-68
2022/04/09 05:51:30;;;;;;;;;;;5.90;99.90;;;;;;2083851;28;20011;-68
2022/04/09 05:52:30;;;;;;;;;;;6.00;99.90;;;;;;2083436;28;20567;-68
2022/04/09 05:53:31;;;;;;;;;;;6.00;99.90;;;;;;2079288;28;19918;-68
2022/04/09 05:54:31;;;;;;;;;;;5.90;99.90;;;;;;2077648;28;19916;-68
2022/04/09 05:55:32;;;;;;;;;;;6.00;99.90;;;;;;2074173;28;19913;-68
2022/04/09 05:56:33;;;;;;;;;;;6.00;99.90;;;;;;2079584;28;20277;-68
2022/04/09 05:57:33;;;;;;;;;;;6.00;99.90;;;;;;2076266;28;19913;-68
2022/04/09 05:58:36;;;;;;;;;;;6.00;99.90;;;;;;2077317;28;19913;-68
2022/04/09 05:59:37;;;;;;;;;;;6.00;99.90;;;;;;2074337;28;19909;-68